Time;durP1;ratioP1;P1;durP2;ratioP2;P2;SDS_P1;SDS_P2;PMS_P1;PMS_P2;Temp;Humidity;BMP_temperature;BMP_pressure;BME280_temperature;BME280_humidity;BME280_pressure;Samples;Min_cycle;Max_cycle;Signal;HPM_P1;HPM_P2
2023/07/09 00:01:24;;;;;;;2.83;2.63;;;23.80;99.90;;;24.30;nan;100848.50;5028999;28;20648;-65
2023/07/09 00:03:54;;;;;;;3.23;2.97;;;23.80;99.90;;;24.30;nan;100850.34;5028780;28;20637;-66
2023/07/09 00:06:21;;;;;;;3.30;3.00;;;23.80;99.90;;;24.29;nan;100848.69;5032236;28;20643;-64
2023/07/09 00:08:49;;;;;;;3.83;3.10;;;23.80;99.90;;;24.30;nan;100848.50;5026454;28;20676;-67
2023/07/09 00:11:17;;;;;;;2.50;2.37;;;23.80;99.90;;;24.31;nan;100860.81;5032950;28;20607;-66
2023/07/09 00:13:44;;;;;;;2.93;2.50;;;23.80;99.90;;;24.28;nan;100852.38;5036608;28;21074;-66
2023/07/09 00:16:16;;;;;;;6.77;2.80;;;23.80;99.90;;;24.22;nan;100853.97;5039767;28;20632;-65
2023/07/09 00:18:44;;;;;;;2.87;2.67;;;23.70;99.90;;;24.18;nan;100868.72;5023895;28;21230;-65
2023/07/09 00:21:11;;;;;;;3.23;2.50;;;23.70;99.90;;;24.14;nan;100863.94;5013618;28;20625;-65
2023/07/09 00:23:41;;;;;;;3.20;2.90;;;23.70;99.90;;;24.10;nan;100860.84;5014910;28;20637;-68
2023/07/09 00:26:16;;;;;;;2.60;2.40;;;23.60;99.90;;;24.09;nan;100866.38;5020250;28;20980;-64
2023/07/09 00:28:44;;;;;;;3.17;2.90;;;23.60;99.90;;;24.11;nan;100867.81;5006628;28;20672;-65
2023/07/09 00:31:14;;;;;;;2.93;2.73;;;23.60;99.90;;;24.12;nan;100872.16;5017090;28;21038;-67
2023/07/09 00:33:43;;;;;;;4.47;3.30;;;23.60;99.90;;;24.13;nan;100870.31;5018108;28;20989;-65
2023/07/09 00:36:26;;;;;;;4.47;3.20;;;23.70;99.90;;;24.13;nan;100873.78;5017117;28;21084;-67
2023/07/09 00:38:53;;;;;;;3.67;2.60;;;23.70;99.90;;;24.12;nan;100874.81;5028718;28;20600;-64
2023/07/09 00:41:23;;;;;;;2.80;2.53;;;23.60;99.90;;;24.13;nan;100884.44;5028038;28;20651;-65
2023/07/09 00:43:52;;;;;;;4.67;3.00;;;23.70;99.90;;;24.10;nan;100881.34;5023560;28;20619;-69
2023/07/09 00:46:27;;;;;;;3.87;3.30;;;23.60;99.90;;;24.07;nan;100882.56;5028369;28;20628;-68
2023/07/09 00:49:05;;;;;;;6.47;3.53;;;23.60;99.90;;;24.03;nan;100889.25;5028611;28;21268;-69
2023/07/09 00:51:37;;;;;;;6.00;3.67;;;23.60;99.90;;;23.97;nan;100887.34;5019178;28;20608;-67
2023/07/09 00:54:30;;;;;;;3.80;3.07;;;23.50;99.90;;;23.92;nan;100887.09;5011116;28;20626;-68
2023/07/09 00:57:11;;;;;;;3.40;2.97;;;23.50;99.90;;;23.91;nan;100888.13;5010873;28;20664;-69
2023/07/09 00:59:40;;;;;;;4.57;3.00;;;23.50;99.90;;;23.89;nan;100888.28;5014754;28;20624;-69
2023/07/09 01:02:08;;;;;;;2.60;2.40;;;23.40;99.90;;;23.88;nan;100891.16;5016120;28;20644;-68
2023/07/09 01:04:36;;;;;;;3.30;3.00;;;23.40;99.90;;;23.86;nan;100891.34;5010173;28;20592;-68
2023/07/09 01:07:03;;;;;;;5.27;3.10;;;23.40;99.90;;;23.87;nan;100895.66;5025636;28;20675;-68
2023/07/09 01:09:30;;;;;;;3.30;2.60;;;23.40;99.90;;;23.87;nan;100895.66;5050882;28;21208;-65
2023/07/09 01:12:01;;;;;;;3.10;2.80;;;23.40;99.90;;;23.88;nan;100883.16;5034961;28;21200;-67
2023/07/09 01:14:28;;;;;;;6.37;3.50;;;23.40;99.90;;;23.87;nan;100887.66;5009394;28;20585;-69
2023/07/09 01:17:08;;;;;;;8.13;2.73;;;23.40;99.90;;;23.82;nan;100889.25;5006183;28;20653;-66
2023/07/09 01:19:43;;;;;;;3.47;2.90;;;23.30;99.90;;;23.81;nan;100891.09;5010013;28;21018;-65
2023/07/09 01:22:18;;;;;;;3.10;2.73;;;23.30;99.90;;;23.79;nan;100889.63;5024600;28;20997;-67
2023/07/09 01:25:02;;;;;;;3.87;3.13;;;23.30;99.90;;;23.71;nan;100887.09;5010636;28;20629;-67
2023/07/09 01:27:33;;;;;;;3.40;3.10;;;23.20;99.90;;;23.67;nan;100886.66;5011621;28;20652;-64
2023/07/09 01:30:11;;;;;;;3.57;3.00;;;23.20;99.90;;;23.68;nan;100890.94;5011393;28;21199;-68
2023/07/09 01:32:40;;;;;;;3.17;2.87;;;23.20;99.90;;;23.69;nan;100895.28;5032732;28;21185;-68
2023/07/09 01:35:07;;;;;;;4.87;2.80;;;23.20;99.90;;;23.67;nan;100891.16;5038776;28;20607;-65
2023/07/09 01:37:37;;;;;;;3.23;2.93;;;23.20;99.90;;;23.65;nan;100890.50;5027682;28;20675;-64
2023/07/09 01:40:09;;;;;;;3.40;3.10;;;23.20;99.90;;;23.65;nan;100898.50;5041102;28;20639;-67
2023/07/09 01:42:51;;;;;;;3.23;2.93;;;23.20;99.90;;;23.61;nan;100891.91;5020766;28;20627;-65
2023/07/09 01:45:20;;;;;;;2.70;2.47;;;23.20;99.90;;;23.59;nan;100892.09;5013104;28;20621;-66
2023/07/09 01:47:47;;;;;;;4.77;3.10;;;23.10;99.90;;;23.57;nan;100887.97;5011369;28;20661;-66
2023/07/09 01:50:16;;;;;;;3.20;2.80;;;23.10;99.90;;;23.55;nan;100887.34;5025419;28;20687;-67
2023/07/09 01:52:44;;;;;;;2.80;2.60;;;23.10;99.90;;;23.56;nan;100878.31;5023821;28;20636;-64
2023/07/09 01:55:16;;;;;;;3.20;2.90;;;23.10;99.90;;;23.54;nan;100880.34;5010196;28;20645;-67
2023/07/09 01:57:45;;;;;;;3.07;2.77;;;23.10;99.90;;;23.50;nan;100887.06;5014596;28;20657;-64
2023/07/09 02:00:16;;;;;;;2.80;2.57;;;23.00;99.90;;;23.47;nan;100887.44;5010804;28;21785;-66
2023/07/09 02:02:46;;;;;;;3.07;2.80;;;23.00;99.90;;;23.42;nan;100881.84;5028043;28;20648;-66
2023/07/09 02:05:17;;;;;;;4.40;2.57;;;23.00;99.90;;;23.36;nan;100878.09;5024599;28;20647;-65
2023/07/09 02:07:44;;;;;;;3.00;2.77;;;22.90;99.90;;;23.26;nan;100882.03;5023811;28;20672;-66
2023/07/09 02:10:14;;;;;;;6.33;2.77;;;22.80;99.90;;;23.21;nan;100881.78;5023414;28;20656;-67
2023/07/09 02:12:41;;;;;;;3.27;2.97;;;22.80;99.90;;;23.15;nan;100884.16;5029030;28;20644;-65
2023/07/09 02:15:09;;;;;;;3.40;3.07;;;22.70;99.90;;;23.10;nan;100889.22;5009556;28;20664;-67
2023/07/09 02:17:36;;;;;;;3.60;2.97;;;22.70;99.90;;;23.08;nan;100888.56;5014966;28;20664;-63
2023/07/09 02:20:06;;;;;;;5.73;3.17;;;22.70;99.90;;;23.10;nan;100888.41;5022609;28;20670;-66
2023/07/09 02:22:34;;;;;;;5.33;3.43;;;22.60;99.90;;;23.11;nan;100882.88;5041063;28;21223;-68
2023/07/09 02:25:03;;;;;;;4.00;3.60;;;22.70;99.90;;;23.13;nan;100883.50;5020744;28;20651;-69
2023/07/09 02:27:29;;;;;;;4.67;3.90;;;22.70;99.90;;;23.17;nan;100890.13;5026830;28;20648;-69
2023/07/09 02:29:57;;;;;;;3.47;3.00;;;22.70;99.90;;;23.20;nan;100888.94;5024223;28;20674;-68
2023/07/09 02:32:26;;;;;;;4.93;3.60;;;22.70;99.90;;;23.20;nan;100888.94;5016903;28;20601;-66
2023/07/09 02:34:55;;;;;;;4.90;3.50;;;22.80;99.90;;;23.23;nan;100893.88;5016316;28;20639;-67
2023/07/09 02:37:24;;;;;;;5.90;3.47;;;22.80;99.90;;;23.22;nan;100891.38;5032176;28;20653;-65
2023/07/09 02:39:52;;;;;;;4.23;3.40;;;22.80;99.90;;;23.21;nan;100889.75;5015833;28;20638;-63
2023/07/09 02:42:22;;;;;;;3.50;3.20;;;22.80;99.90;;;23.20;nan;100888.09;5035515;28;21265;-65
2023/07/09 02:44:49;;;;;;;4.07;3.70;;;22.70;99.90;;;23.20;nan;100888.09;5020250;28;20625;-66
2023/07/09 02:47:16;;;;;;;5.90;3.33;;;22.70;99.90;;;23.20;nan;100882.75;5009879;28;20644;-65
2023/07/09 02:49:43;;;;;;;6.50;3.87;;;22.70;99.90;;;23.18;nan;100888.28;5012445;28;20668;-67
2023/07/09 02:52:10;;;;;;;7.40;4.23;;;22.70;99.90;;;23.19;nan;100891.78;5016222;28;20669;-67
2023/07/09 02:54:37;;;;;;;3.57;3.20;;;22.80;99.90;;;23.17;nan;100891.13;5020622;28;20651;-65
2023/07/09 02:57:05;;;;;;;3.47;3.17;;;22.70;99.90;;;23.13;nan;100882.69;5018541;28;20671;-66
2023/07/09 02:59:32;;;;;;;4.17;3.50;;;22.70;99.90;;;23.09;nan;100887.56;5022782;28;20636;-66
2023/07/09 03:02:00;;;;;;;5.70;3.57;;;22.70;99.90;;;23.10;nan;100893.72;5016153;28;20640;-69
2023/07/09 03:04:27;;;;;;;7.67;3.47;;;22.70;99.90;;;23.09;nan;100898.22;5026337;28;20637;-68
2023/07/09 03:06:54;;;;;;;3.77;3.20;;;22.60;99.90;;;23.09;nan;100906.19;5029710;28;20649;-65
2023/07/09 03:09:21;;;;;;;3.63;3.33;;;22.70;99.90;;;23.09;nan;100902.69;5024514;28;20676;-65
2023/07/09 03:11:48;;;;;;;3.53;3.20;;;22.70;99.90;;;23.11;nan;100903.34;5028975;28;20621;-65
2023/07/09 03:14:16;;;;;;;6.27;4.30;;;22.70;99.90;;;23.11;nan;100906.81;5037951;28;20626;-70
2023/07/09 03:16:43;;;;;;;5.37;3.77;;;22.70;99.90;;;23.09;nan;100916.84;5048927;28;20662;-66
2023/07/09 03:19:11;;;;;;;6.67;3.97;;;22.60;99.90;;;23.06;nan;100921.72;5015051;28;20642;-66
2023/07/09 03:21:39;;;;;;;6.53;3.50;;;22.60;99.90;;;23.01;nan;100914.28;5009513;28;20625;-66
2023/07/09 03:24:07;;;;;;;4.90;3.70;;;22.60;99.90;;;22.99;nan;100921.63;5007742;28;20645;-68
2023/07/09 03:26:35;;;;;;;3.73;3.43;;;22.60;99.90;;;22.98;nan;100911.97;5025416;28;20651;-69
2023/07/09 03:29:02;;;;;;;3.90;3.57;;;22.60;99.90;;;22.97;nan;100914.81;5016522;28;20656;-69
2023/07/09 03:31:30;;;;;;;4.83;3.70;;;22.60;99.90;;;22.97;nan;100925.47;5029383;28;20620;-65
2023/07/09 03:33:57;;;;;;;3.50;3.20;;;22.50;99.90;;;22.98;nan;100927.09;5025030;28;20634;-65
2023/07/09 03:36:24;;;;;;;3.17;2.90;;;22.50;99.90;;;22.97;nan;100934.28;5017714;28;21040;-70
2023/07/09 03:38:51;;;;;;;3.83;3.40;;;22.60;99.90;;;22.98;nan;100938.59;5036575;28;21218;-65
2023/07/09 03:41:18;;;;;;;3.90;3.30;;;22.50;99.90;;;22.94;nan;100937.28;5049668;28;20616;-66
2023/07/09 03:43:45;;;;;;;3.23;2.70;;;22.50;99.90;;;22.88;nan;100931.88;5020116;28;21216;-67
2023/07/09 03:46:12;;;;;;;5.87;3.40;;;22.50;99.90;;;22.88;nan;100938.03;5015421;28;21397;-66
2023/07/09 03:48:39;;;;;;;4.57;3.47;;;22.40;99.90;;;22.85;nan;100935.72;5017726;28;20669;-67
2023/07/09 03:51:06;;;;;;;3.93;3.40;;;22.40;99.90;;;22.86;nan;100945.38;5021810;28;20608;-66
2023/07/09 03:53:33;;;;;;;3.30;3.00;;;22.40;99.90;;;22.86;nan;100940.06;5013402;28;20672;-66
2023/07/09 03:56:00;;;;;;;5.90;3.97;;;22.40;99.90;;;22.86;nan;100944.53;5021007;28;20641;-67
2023/07/09 03:58:28;;;;;;;7.07;3.63;;;22.40;99.90;;;22.84;nan;100943.91;5017970;28;20671;-65
2023/07/09 04:00:55;;;;;;;7.83;3.00;;;22.40;99.90;;;22.83;nan;100940.41;5018627;28;20621;-66
2023/07/09 04:03:23;;;;;;;3.40;3.10;;;22.40;99.90;;;22.82;nan;100938.75;5028447;28;20597;-65
2023/07/09 04:05:50;;;;;;;4.07;3.77;;;22.40;99.90;;;22.86;nan;100934.72;5011685;28;20643;-65
2023/07/09 04:08:17;;;;;;;4.20;3.20;;;22.40;99.90;;;22.91;nan;100942.16;5017805;28;20669;-67
2023/07/09 04:10:44;;;;;;;5.50;3.40;;;22.50;99.90;;;22.94;nan;100941.78;5038197;28;21521;-68
2023/07/09 04:13:12;;;;;;;4.00;3.60;;;22.50;99.90;;;23.00;nan;100931.25;5020607;28;20743;-66
2023/07/09 04:15:39;;;;;;;3.10;2.80;;;22.60;99.90;;;23.08;nan;100939.13;5032840;28;20620;-69
2023/07/09 04:18:06;;;;;;;3.53;2.97;;;22.70;99.90;;;23.19;nan;100943.19;5021313;28;20672;-66
2023/07/09 04:20:34;;;;;;;4.30;3.33;;;22.70;99.90;;;23.30;nan;100936.56;5018499;28;21268;-68
2023/07/09 04:23:02;;;;;;;3.47;3.17;;;22.80;99.90;;;23.39;nan;100943.47;5024776;28;20632;-66
2023/07/09 04:25:29;;;;;;;4.43;2.93;;;22.90;99.90;;;23.49;nan;100946.69;5020565;28;20641;-68
2023/07/09 04:27:57;;;;;;;3.60;3.27;;;23.00;99.90;;;23.60;nan;100954.16;5025611;28;21159;-66
2023/07/09 04:30:24;;;;;;;3.37;3.07;;;23.10;99.90;;;23.72;nan;100952.69;5021493;28;20652;-67
2023/07/09 04:32:51;;;;;;;3.77;3.17;;;23.30;99.90;;;23.82;nan;100959.38;5030047;28;20996;-68
2023/07/09 04:35:18;;;;;;;4.03;2.93;;;23.30;99.90;;;23.94;nan;100957.03;5026683;28;20699;-66
2023/07/09 04:37:45;;;;;;;8.40;3.57;;;23.40;99.90;;;24.03;nan;100958.56;5027966;28;20668;-66
2023/07/09 04:40:13;;;;;;;5.07;4.00;;;23.60;99.90;;;24.14;nan;100963.44;5029006;28;21070;-63
2023/07/09 04:42:40;;;;;;;2.83;2.63;;;23.70;99.90;;;24.27;nan;100974.22;5020579;28;20638;-66
2023/07/09 04:45:10;;;;;;;7.37;3.07;;;23.80;99.90;;;24.35;nan;100971.44;5011504;28;20643;-66
2023/07/09 04:47:39;;;;;;;3.77;3.40;;;23.90;99.90;;;24.45;nan;100971.09;5014997;28;21235;-70
2023/07/09 04:50:08;;;;;;;3.43;3.13;;;24.00;99.90;;;24.55;nan;100966.28;5013775;28;20677;-66
2023/07/09 04:52:35;;;;;;;9.73;3.40;;;24.10;99.90;;;24.69;nan;100970.69;5021288;28;20620;-68
2023/07/09 04:55:03;;;;;;;4.57;3.27;;;24.20;99.90;;;24.80;nan;100980.03;5019051;28;20655;-66
2023/07/09 04:57:30;;;;;;;4.43;3.63;;;24.30;99.90;;;24.92;nan;100983.81;5018998;28;20651;-69
2023/07/09 04:59:57;;;;;;;3.57;3.27;;;24.50;99.90;;;25.06;nan;100974.88;5024988;28;20648;-67
2023/07/09 05:02:24;;;;;;;3.50;3.20;;;24.60;99.90;;;25.21;nan;100970.25;5028756;28;20628;-69
2023/07/09 05:04:51;;;;;;;5.30;3.47;;;24.80;99.90;;;25.32;nan;100973.19;5030787;28;20599;-65
2023/07/09 05:07:18;;;;;;;3.50;3.10;;;24.90;99.90;;;25.43;nan;100974.50;5029265;28;21041;-65
2023/07/09 05:09:45;;;;;;;3.47;3.17;;;25.00;99.90;;;25.51;nan;100969.00;5032025;28;20647;-65
2023/07/09 05:12:13;;;;;;;3.17;2.87;;;25.10;99.90;;;25.66;nan;100975.00;5015195;28;20641;-66
2023/07/09 05:14:40;;;;;;;8.90;3.70;;;25.20;99.90;;;25.83;nan;100975.50;5021188;28;20647;-69
2023/07/09 05:17:07;;;;;;;3.90;3.30;;;25.40;99.90;;;26.03;nan;100974.50;5031972;28;21082;-66
2023/07/09 05:19:36;;;;;;;7.50;3.37;;;25.60;99.90;;;26.30;nan;100971.94;5025538;28;20638;-66
2023/07/09 05:22:03;;;;;;;4.73;3.47;;;25.80;99.90;;;26.63;nan;100976.25;5010454;28;20593;-65
2023/07/09 05:24:30;;;;;;;6.20;3.50;;;26.10;99.90;;;26.94;nan;100972.16;5017509;28;20654;-65
2023/07/09 05:26:57;;;;;;;8.33;3.77;;;26.40;99.90;;;27.27;nan;100968.34;5038242;28;21070;-66
2023/07/09 05:29:25;;;;;;;4.80;3.97;;;26.70;99.90;;;27.54;nan;100969.94;5024819;28;20684;-68
2023/07/09 05:31:53;;;;;;;6.53;3.77;;;27.00;99.90;;;27.79;nan;100970.00;5010495;28;21201;-67
2023/07/09 05:34:21;;;;;;;3.43;3.17;;;27.30;99.90;;;27.94;nan;100980.47;5010622;28;21274;-66
2023/07/09 05:36:48;;;;;;;8.43;3.57;;;27.40;99.90;;;28.19;nan;100982.22;5010614;28;21243;-67
2023/07/09 05:39:16;;;;;;;3.67;3.33;;;27.70;99.90;;;28.38;nan;100975.88;5009419;28;20641;-66
2023/07/09 05:41:43;;;;;;;4.10;3.53;;;27.90;99.90;;;28.55;nan;100978.00;5021778;28;20645;-68
2023/07/09 05:44:11;;;;;;;4.10;3.70;;;28.00;99.90;;;28.71;nan;100974.78;5015695;28;20640;-68
2023/07/09 05:46:38;;;;;;;4.13;3.77;;;28.20;99.90;;;28.97;nan;100979.94;5029890;28;20641;-67
2023/07/09 05:49:06;;;;;;;3.80;3.27;;;28.40;99.90;;;29.31;nan;100975.88;5020994;28;20649;-68
2023/07/09 05:51:33;;;;;;;2.87;2.70;;;28.70;99.90;;;29.57;nan;100983.63;5010457;28;20622;-68
2023/07/09 05:54:00;;;;;;;3.50;3.03;;;29.00;99.90;;;29.77;nan;100989.63;5018271;28;20666;-66
2023/07/09 05:56:28;;;;;;;4.47;3.40;;;29.20;99.90;;;29.90;nan;100981.34;5022643;28;20674;-67
2023/07/09 05:58:56;;;;;;;5.93;3.57;;;29.40;99.90;;;30.10;nan;100978.38;5016289;28;20632;-65
2023/07/09 06:01:24;;;;;;;4.43;3.83;;;29.60;99.90;;;30.41;nan;100989.72;5029672;28;20620;-69
2023/07/09 06:03:51;;;;;;;3.67;3.23;;;29.80;99.60;;;30.72;nan;100982.41;5027359;28;20633;-69
2023/07/09 06:06:18;;;;;;;5.37;3.83;;;30.10;98.90;;;30.98;nan;100988.19;5029445;28;20666;-67
2023/07/09 06:08:46;;;;;;;4.80;3.70;;;30.30;98.50;;;31.30;nan;100996.72;5049936;28;20655;-66
2023/07/09 06:11:13;;;;;;;4.23;3.83;;;30.60;97.90;;;31.60;nan;100996.53;5027313;28;20687;-65
2023/07/09 06:13:41;;;;;;;3.87;3.57;;;31.00;97.30;;;31.87;nan;100995.75;5019866;28;20988;-66
2023/07/09 06:16:08;;;;;;;5.93;3.80;;;31.20;96.80;;;32.25;nan;100997.81;5024547;28;21151;-66
2023/07/09 06:18:35;;;;;;;3.77;3.43;;;31.60;96.20;;;32.67;nan;100998.25;5026861;28;20655;-66
2023/07/09 06:21:03;;;;;;;4.63;4.00;;;31.90;95.30;;;33.03;nan;101008.56;5016827;28;21042;-68
2023/07/09 06:23:30;;;;;;;4.60;3.60;;;32.30;94.40;;;33.28;nan;101000.00;5027443;28;20624;-70
2023/07/09 06:25:58;;;;;;;3.83;3.50;;;32.70;93.40;;;33.40;nan;101003.41;5024509;28;20643;-67
2023/07/09 06:28:29;;;;;;;4.30;3.27;;;32.80;92.80;;;33.59;nan;100986.63;5016133;28;21283;-66
2023/07/09 06:30:57;;;;;;;5.47;3.77;;;33.10;92.10;;;33.95;nan;100989.72;5023107;28;20668;-66
2023/07/09 06:33:25;;;;;;;4.20;3.90;;;33.30;91.50;;;34.46;nan;100989.13;5027460;28;20644;-68
2023/07/09 06:35:59;;;;;;;3.27;3.07;;;33.80;90.50;;;34.98;nan;100992.81;5016934;28;20632;-69
2023/07/09 06:38:27;;;;;;;4.33;3.80;;;34.30;88.60;;;35.36;nan;100996.28;5016246;28;21286;-69
2023/07/09 06:40:56;;;;;;;6.60;4.43;;;34.70;86.20;;;35.86;nan;100996.50;5011908;28;20645;-68
2023/07/09 06:43:23;;;;;;;4.30;3.67;;;35.20;83.70;;;36.37;nan;100997.41;5014731;28;20633;-66
2023/07/09 06:46:01;;;;;;;4.80;4.07;;;35.70;81.60;;;36.93;nan;101004.47;5018273;28;20647;-69
2023/07/09 06:48:29;;;;;;;6.10;4.20;;;36.20;79.30;;;37.25;nan;101004.91;5026317;28;20668;-67
2023/07/09 06:50:58;;;;;;;4.30;3.87;;;36.60;75.50;;;37.62;nan;101009.16;5028301;28;21238;-68
2023/07/09 06:53:26;;;;;;;3.73;3.40;;;37.00;73.40;;;37.80;nan;101006.63;5024260;28;20641;-66
2023/07/09 06:55:58;;;;;;;3.83;3.50;;;37.30;70.80;;;37.96;nan;101005.44;5015980;28;20649;-69
2023/07/09 06:58:31;;;;;;;3.00;2.80;;;37.40;69.80;;;38.22;nan;101010.72;5024853;28;21024;-66
2023/07/09 07:01:03;;;;;;;3.90;3.23;;;37.60;68.70;;;38.45;nan;101001.84;5029969;28;20638;-67
2023/07/09 07:03:32;;;;;;;3.83;3.53;;;37.90;67.90;;;38.96;nan;101004.91;5028922;28;20666;-66
2023/07/09 07:05:59;;;;;;;3.10;2.90;;;38.30;67.30;;;39.47;nan;101006.78;5008117;28;20647;-67
2023/07/09 07:08:27;;;;;;;3.37;3.17;;;38.80;66.10;;;40.04;nan;101000.28;5033200;28;20647;-68
2023/07/09 07:11:02;;;;;;;3.20;3.00;;;39.30;64.50;;;40.40;nan;101010.69;5036288;28;20671;-67
2023/07/09 07:13:36;;;;;;;3.90;3.60;;;39.70;63.00;;;40.62;nan;101008.94;5029634;28;20665;-68
2023/07/09 07:16:07;;;;;;;3.80;3.43;;;40.00;61.40;;;40.96;nan;101009.44;5025655;28;20665;-69
2023/07/09 07:18:35;;;;;;;4.23;3.70;;;40.30;60.70;;;41.14;nan;100998.69;5021553;28;20702;-68
2023/07/09 07:21:02;;;;;;;3.60;3.40;;;40.50;59.80;;;41.47;nan;101002.94;5039044;28;20631;-67
2023/07/09 07:23:29;;;;;;;4.60;3.90;;;40.80;59.30;;;41.84;nan;100988.16;5024231;28;21197;-65
2023/07/09 07:25:56;;;;;;;7.03;3.70;;;41.10;58.40;;;42.10;nan;100990.03;5009537;28;21140;-67
2023/07/09 07:28:24;;;;;;;3.77;3.53;;;41.50;57.70;;;42.39;nan;100982.16;5004075;28;21296;-71
2023/07/09 07:31:07;;;;;;;4.17;3.93;;;41.80;57.10;;;42.49;nan;100983.06;5048803;28;20663;-68
2023/07/09 07:33:37;;;;;;;4.90;3.90;;;42.00;56.10;;;43.03;nan;100977.19;5020213;28;20633;-67
2023/07/09 07:36:05;;;;;;;4.60;4.20;;;42.50;55.80;;;43.65;nan;100984.16;5021852;28;20614;-68
2023/07/09 07:38:52;;;;;;;3.60;3.30;;;43.00;55.00;;;44.40;nan;100986.41;5015859;28;21298;-67
2023/07/09 07:41:19;;;;;;;3.60;3.40;;;43.70;53.70;;;44.58;nan;100992.66;5037560;28;20623;-74
2023/07/09 07:43:46;;;;;;;5.10;3.97;;;44.00;52.80;;;44.98;nan;101002.25;5017166;28;20641;-68
2023/07/09 07:46:13;;;;;;;4.60;4.20;;;44.30;52.20;;;45.01;nan;100993.34;5019630;28;20625;-68
2023/07/09 07:48:40;;;;;;;4.10;3.70;;;44.50;51.80;;;45.37;nan;101001.09;5019831;28;20739;-67
2023/07/09 07:51:07;;;;;;;4.53;4.20;;;44.70;51.40;;;45.71;nan;100994.53;5021956;28;20663;-68
2023/07/09 07:53:34;;;;;;;4.33;3.93;;;45.10;50.60;;;45.71;nan;100989.03;5024679;28;20656;-68
2023/07/09 07:56:04;;;;;;;4.10;3.90;;;45.30;50.50;;;45.97;nan;100990.47;5032189;28;20636;-67
2023/07/09 07:58:32;;;;;;;4.40;3.40;;;45.50;49.80;;;46.44;nan;100993.75;5029519;28;20708;-70
2023/07/09 08:00:59;;;;;;;4.17;3.97;;;45.80;49.00;;;46.52;nan;100979.03;5017939;28;20689;-68
2023/07/09 08:03:26;;;;;;;4.73;4.43;;;46.00;48.60;;;46.92;nan;100983.94;5025944;28;21216;-66
2023/07/09 08:05:54;;;;;;;3.93;3.83;;;46.40;48.40;;;47.37;nan;100981.84;5030020;28;20641;-69
2023/07/09 08:08:21;;;;;;;4.20;3.90;;;46.80;47.90;;;47.64;nan;100975.59;5013022;28;20669;-68
2023/07/09 08:10:51;;;;;;;3.97;3.77;;;47.10;46.90;;;47.98;nan;100977.78;5014016;28;20667;-67
2023/07/09 08:13:18;;;;;;;4.03;3.83;;;47.40;46.60;;;47.83;nan;100977.75;5012346;28;20716;-70
2023/07/09 08:15:46;;;;;;;4.00;3.80;;;47.50;45.70;;;47.47;nan;100970.34;5018468;28;20645;-68
2023/07/09 08:18:13;;;;;;;4.20;3.90;;;47.30;45.30;;;47.53;nan;100968.94;5016972;28;20879;-69
2023/07/09 08:20:44;;;;;;;4.00;3.80;;;47.20;45.50;;;47.59;nan;100967.53;5025991;28;20206;-67
2023/07/09 08:23:11;;;;;;;4.57;4.30;;;47.30;45.30;;;47.87;nan;100971.16;5025347;28;20668;-69
2023/07/09 08:25:38;;;;;;;4.00;3.80;;;47.50;45.00;;;47.87;nan;100964.81;5032539;28;20203;-68
2023/07/09 08:28:06;;;;;;;3.20;3.10;;;47.60;44.40;;;47.71;nan;100963.94;5021973;28;20259;-69
2023/07/09 08:30:34;;;;;;;4.03;3.50;;;47.50;43.50;;;47.69;nan;100955.97;5019718;28;20223;-68
2023/07/09 08:33:01;;;;;;;3.70;3.60;;;47.50;43.60;;;47.71;nan;100963.94;5013429;28;20670;-69
2023/07/09 08:35:28;;;;;;;4.23;3.73;;;47.40;43.60;;;47.69;nan;100966.25;5031352;28;20207;-72
2023/07/09 08:38:02;;;;;;;3.90;3.67;;;47.30;43.60;;;46.67;nan;100964.59;5046955;28;20588;-70
2023/07/09 08:40:31;;;;;;;3.80;3.60;;;46.50;43.50;;;46.17;nan;100964.00;5020152;28;21014;-69
2023/07/09 08:43:12;;;;;;;3.27;3.17;;;45.90;44.10;;;46.03;nan;100963.47;5015141;28;20628;-68
2023/07/09 08:46:03;;;;;;;3.53;3.37;;;45.50;44.60;;;45.65;nan;100960.06;5026572;28;20649;-69
2023/07/09 08:48:37;;;;;;;3.90;3.60;;;45.10;45.10;;;45.13;nan;100954.88;5027861;28;21025;-69
2023/07/09 08:51:34;;;;;;;3.30;3.10;;;44.50;45.90;;;43.77;nan;100954.09;5015711;28;21256;-68
2023/07/09 08:54:01;;;;;;;3.10;3.00;;;43.20;47.00;;;42.84;nan;100949.16;5024378;28;20656;-69
2023/07/09 08:56:33;;;;;;;4.87;3.90;;;42.10;48.00;;;41.91;nan;100947.44;5017911;28;20620;-68
2023/07/09 08:59:02;;;;;;;8.20;4.60;;;41.20;48.80;;;40.87;nan;100944.78;5021459;28;20636;-68
2023/07/09 09:01:40;;;;;;;3.83;3.63;;;40.10;50.00;;;39.74;nan;100939.81;5023222;28;22061;-68
2023/07/09 09:04:20;;;;;;;3.83;3.63;;;39.20;51.20;;;39.03;nan;100932.53;5016643;28;21314;-67
2023/07/09 09:06:59;;;;;;;3.57;3.37;;;38.40;52.30;;;38.24;nan;100933.06;5052768;28;20655;-70
2023/07/09 09:09:46;;;;;;;3.90;3.53;;;37.60;53.00;;;37.63;nan;100938.06;5030910;28;20612;-71
2023/07/09 09:12:28;;;;;;;3.27;3.07;;;37.00;53.80;;;37.09;nan;100935.34;5028576;28;20657;-69
2023/07/09 09:15:04;;;;;;;4.00;3.70;;;36.50;54.60;;;36.78;nan;100931.03;5026935;28;20646;-69
2023/07/09 09:17:34;;;;;;;4.40;3.90;;;36.10;55.10;;;36.54;nan;100930.84;5050392;28;20651;-69
2023/07/09 09:20:09;;;;;;;3.53;3.23;;;35.80;55.60;;;36.45;nan;100928.94;5041603;28;20638;-68
2023/07/09 09:23:06;;;;;;;3.47;3.23;;;35.70;56.10;;;36.29;nan;100930.81;5050282;28;20599;-67
2023/07/09 09:25:38;;;;;;;29.90;20.80;;;35.50;56.10;;;36.27;nan;100929.47;5010233;28;20638;-69
2023/07/09 09:28:06;;;;;;;5.77;5.03;;;35.50;56.10;;;36.24;nan;100932.72;5010154;28;20653;-70
2023/07/09 09:30:34;;;;;;;4.17;3.40;;;35.50;56.20;;;36.18;nan;100931.09;5016563;28;20672;-70
2023/07/09 09:33:07;;;;;;;6.53;3.20;;;35.40;56.20;;;35.87;nan;100922.09;5028925;28;20642;-68
2023/07/09 09:35:41;;;;;;;3.53;2.90;;;35.20;56.50;;;35.76;nan;100923.16;5026905;28;20620;-68
2023/07/09 09:38:21;;;;;;;3.50;3.20;;;35.00;57.30;;;35.69;nan;100931.56;5029896;28;20664;-68
2023/07/09 09:40:48;;;;;;;3.57;3.00;;;35.00;57.60;;;35.65;nan;100938.59;5027799;28;20640;-67
2023/07/09 09:43:19;;;;;;;4.07;3.20;;;34.90;57.50;;;35.65;nan;100935.88;5029746;28;20651;-67
2023/07/09 09:45:49;;;;;;;2.50;2.40;;;34.90;57.30;;;35.56;nan;100942.13;5031093;28;20623;-68
2023/07/09 09:48:32;;;;;;;3.37;2.93;;;34.80;57.40;;;35.46;nan;100942.88;5015587;28;20657;-69
2023/07/09 09:51:03;;;;;;;2.90;2.70;;;34.70;57.30;;;35.34;nan;100934.16;5025020;28;21251;-66
2023/07/09 09:53:39;;;;;;;2.93;2.70;;;34.60;57.80;;;35.26;nan;100925.72;5025053;28;20677;-66
2023/07/09 09:56:15;;;;;;;3.27;3.03;;;34.60;58.00;;;35.40;nan;100915.97;5040371;28;20640;-67
2023/07/09 09:58:42;;;;;;;3.70;3.27;;;34.70;58.50;;;35.65;nan;100910.66;5014510;28;21478;-68
2023/07/09 10:01:16;;;;;;;2.70;2.50;;;35.00;57.50;;;36.04;nan;100917.25;5026057;28;20644;-65
2023/07/09 10:03:47;;;;;;;3.30;3.00;;;35.40;55.00;;;36.67;nan;100910.44;5014354;28;20627;-68
2023/07/09 10:06:29;;;;;;;2.93;2.73;;;36.10;54.20;;;37.28;nan;100906.41;5026386;28;20982;-69
2023/07/09 10:09:37;;;;;;;9.47;6.60;;;36.80;53.60;;;38.05;nan;100905.69;5021620;28;20637;-69
2023/07/09 10:12:39;;;;;;;9.57;6.37;;;37.30;53.20;;;38.59;nan;100908.16;5016655;28;20673;-63
2023/07/09 10:15:31;;;;;;;4.20;3.87;;;37.70;52.80;;;38.64;nan;100896.41;5015010;28;21029;-67
2023/07/09 10:18:09;;;;;;;3.20;2.90;;;37.80;51.80;;;38.17;nan;100901.75;5025186;28;20664;-67
2023/07/09 10:20:43;;;;;;;3.93;3.00;;;37.40;52.50;;;37.43;nan;100891.09;5016283;28;20621;-68
2023/07/09 10:24:05;;;;;;;3.27;3.03;;;36.70;52.80;;;37.00;nan;100893.47;5027712;28;20642;-69
2023/07/09 10:26:55;;;;;;;4.60;4.20;;;36.20;53.50;;;36.69;nan;100882.94;5025946;28;20996;-66
2023/07/09 10:30:01;;;;;;;3.97;3.57;;;36.00;54.10;;;36.51;nan;100879.75;5013861;28;20649;-67
2023/07/09 10:33:13;;;;;;;2.93;2.73;;;35.70;54.50;;;36.42;nan;100884.09;5010815;28;20601;-67
2023/07/09 10:35:57;;;;;;;3.40;3.20;;;35.70;54.60;;;36.22;nan;100870.53;5029730;28;20644;-67
2023/07/09 10:38:57;;;;;;;3.67;3.37;;;35.40;54.30;;;36.20;nan;100872.69;5022450;28;20667;-68
2023/07/09 10:41:25;;;;;;;5.13;3.30;;;35.40;54.80;;;36.14;nan;100862.91;5016855;28;20612;-67